createdAt,value
2022-08-18T16:12:53.773Z,99665.97
2022-08-18T16:15:57.261Z,99667.22
2022-08-18T16:18:59.624Z,99671.31
2022-08-18T16:22:06.294Z,99664.81
2022-08-18T16:25:09.582Z,99641.31
2022-08-18T16:28:13.364Z,99668.13
2022-08-18T16:31:16.400Z,99662.12
2022-08-18T16:34:18.899Z,99670.44
2022-08-18T16:37:21.166Z,99649.53
2022-08-18T16:40:23.796Z,99650.56
2022-08-18T16:43:30.450Z,99654.44
2022-08-18T16:46:32.998Z,99659.63
2022-08-18T16:49:35.268Z,99645.22
2022-08-18T16:52:38.684Z,99639.19
2022-08-18T16:55:43.272Z,99658.97
2022-08-18T16:59:05.224Z,99654.28
2022-08-18T17:02:27.225Z,99635.72
2022-08-18T17:05:29.918Z,99647.69
2022-08-18T17:08:34.219Z,99633.63
2022-08-18T17:11:38.544Z,99629.41
2022-08-18T17:14:54.476Z,99610.56
2022-08-18T17:17:57.185Z,99620.19
2022-08-18T17:21:04.465Z,99631.28
2022-08-18T17:24:09.859Z,99609.84
2022-08-18T17:27:34.094Z,99624.88
2022-08-18T17:30:48.623Z,99613.16
2022-08-18T17:33:53.135Z,99588.75
2022-08-18T17:36:58.071Z,99614.25
2022-08-18T17:40:23.826Z,99605.84
2022-08-18T17:43:34.407Z,99566.13
2022-08-18T17:46:40.270Z,99577.62
2022-08-18T17:50:27.016Z,99562.25
2022-08-18T17:53:26.159Z,99573.59
2022-08-18T17:56:40.048Z,99569.09
2022-08-18T17:59:51.888Z,99577.16
2022-08-18T18:02:57.585Z,99604.25
2022-08-18T18:06:25.067Z,99594.78
2022-08-18T18:09:27.344Z,99599.72
2022-08-18T18:12:32.237Z,99618.88
2022-08-18T18:15:40.626Z,99570.22
2022-08-18T18:18:45.420Z,99549.63
2022-08-18T18:22:06.931Z,99609.34
2022-08-18T18:25:11.516Z,99608.84
2022-08-18T18:28:37.603Z,99619.25
2022-08-18T18:32:15.774Z,99633.53
2022-08-18T18:35:27.589Z,99633.94
2022-08-18T18:38:33.254Z,99636.66
2022-08-18T18:41:40.559Z,99615.81
2022-08-18T18:44:55.057Z,99646.84
2022-08-18T18:48:04.527Z,99639.31
2022-08-18T18:51:33.244Z,99659.16
2022-08-18T18:54:59.739Z,99645.22
2022-08-18T18:58:09.819Z,99645.13
2022-08-18T19:01:47.979Z,99646.88
2022-08-18T19:05:04.622Z,99640.13
2022-08-18T19:08:15.903Z,99629.59
2022-08-18T19:11:32.556Z,99645.22
2022-08-18T19:14:49.906Z,99642.06
2022-08-18T19:18:28.229Z,99652.84
2022-08-18T19:22:05.855Z,99648.91
2022-08-18T19:25:02.870Z,99625.34
2022-08-18T19:28:35.205Z,99644.25
2022-08-18T19:32:15.792Z,99649.47
2022-08-18T19:35:38.519Z,99632.19
2022-08-18T19:38:57.892Z,99642.53
2022-08-18T19:42:07.050Z,99644.31
2022-08-18T19:45:19.281Z,99645.28
2022-08-18T19:48:57.158Z,99635.87
2022-08-18T19:52:45.859Z,99633.47
2022-08-18T19:56:07.830Z,99626.66
2022-08-18T19:59:18.231Z,99642.06
2022-08-18T20:02:40.405Z,99646.16
2022-08-18T20:05:53.233Z,99644.56
2022-08-18T20:09:17.345Z,99639.84
2022-08-18T20:12:45.401Z,99644.75
2022-08-18T20:16:24.410Z,99644.63
2022-08-18T20:19:45.755Z,99656.00
2022-08-18T20:22:57.444Z,99655.66
2022-08-18T20:26:00.724Z,99652.22
2022-08-18T20:29:03.999Z,99644.38
2022-08-18T20:32:41.170Z,99645.63
2022-08-18T20:36:12.137Z,99636.03
2022-08-18T20:39:41.223Z,99635.09
2022-08-18T20:42:48.305Z,99621.44
2022-08-18T20:46:22.993Z,99623.66
2022-08-18T20:49:27.956Z,99640.66
2022-08-18T20:52:43.397Z,99645.72
2022-08-18T20:55:55.370Z,99650.78
2022-08-18T20:59:12.295Z,99643.25
2022-08-18T21:02:29.612Z,99656.94
2022-08-18T21:05:36.509Z,99676.13
2022-08-18T21:08:53.387Z,99656.94
2022-08-18T21:11:56.058Z,99672.06
2022-08-18T21:15:03.759Z,99667.53
2022-08-18T21:18:17.642Z,99676.50
2022-08-18T21:21:26.969Z,99682.38
2022-08-18T21:24:40.621Z,99706.31
2022-08-18T21:27:46.394Z,99712.59
2022-08-18T21:31:28.936Z,99699.38
2022-08-18T21:34:47.766Z,99711.69
2022-08-18T21:38:08.779Z,99710.72
2022-08-18T21:41:13.726Z,99714.84
2022-08-18T21:44:28.914Z,99740.34
2022-08-18T21:47:33.612Z,99738.44
2022-08-18T21:50:37.648Z,99751.06
2022-08-18T21:53:39.984Z,99733.06
2022-08-18T21:56:42.807Z,99751.69
2022-08-18T22:00:30.505Z,99756.72
2022-08-18T22:03:36.684Z,99756.41
2022-08-18T22:06:40.918Z,99753.69
2022-08-18T22:10:45.370Z,99761.09
2022-08-18T22:14:00.672Z,99761.88
2022-08-18T22:17:31.336Z,99771.16
2022-08-18T22:20:42.141Z,99782.78
2022-08-18T22:24:05.307Z,99790.66
2022-08-18T22:27:18.559Z,99785.94
2022-08-18T22:30:21.076Z,99782.94
2022-08-18T22:33:23.529Z,99792.69
2022-08-18T22:36:29.625Z,99810.16
2022-08-18T22:39:46.431Z,99806.69
2022-08-18T22:42:49.415Z,99807.62
2022-08-18T22:45:52.278Z,99801.19
2022-08-18T22:48:54.844Z,99806.97
2022-08-18T22:51:57.820Z,99803.84
2022-08-18T22:55:06.555Z,99808.84
2022-08-18T22:58:09.187Z,99801.28
2022-08-18T23:01:13.050Z,99800.97
2022-08-18T23:04:17.916Z,99800.31
2022-08-18T23:07:23.034Z,99778.22
2022-08-18T23:10:26.586Z,99773.50
2022-08-18T23:13:30.174Z,99795.84
2022-08-18T23:16:32.630Z,99796.78
2022-08-18T23:19:35.223Z,99798.66
2022-08-18T23:22:37.637Z,99780.22
2022-08-18T23:25:40.321Z,99784.31
2022-08-18T23:28:49.204Z,99774.06
2022-08-18T23:31:55.108Z,99783.78
2022-08-18T23:34:57.388Z,99772.78
2022-08-18T23:38:01.846Z,99761.41
2022-08-18T23:41:09.612Z,99775.28
2022-08-18T23:44:15.007Z,99754.75
2022-08-18T23:47:20.859Z,99755.66
2022-08-18T23:50:24.102Z,99768.59
2022-08-18T23:53:31.007Z,99751.81
2022-08-18T23:56:35.622Z,99746.28
2022-08-18T23:59:37.899Z,99765.81
